Skip to content
You are here: Gozo Weather
Gozo Weather Station for the very latest live weather conditions from Gozo and Malta
 
 TIME   TEMPERATURE   WINDSPEED   DIRECTION   HUMIDITY   BAROMETER   RAINFALL 
11:45 25.9°C (78.6°F) 5.6 kmh (3.5 mph) W 78% 1010.0hPa (29.83 inHg) 0.0mm (0.00 in.)
10:45 26.0°C (78.8 °F) 5.6 kmh (3.5 mph) SSW 77% 1010.0hPa (29.83 inHg) 0.0mm (0.00 in.)
9:45 26.3°C (79.3 °F) 13.0 kmh (8.1 mph) NNW 73% 1010.0hPa (29.83 inHg) 0.0mm (0.00 in.)
8:45 26.9°C (80.4 °F) 5.6 kmh (3.5 mph) W 71% 1009.0hPa (29.80 inHg) 0.0mm (0.00 in.)
7:45 27.3°C (81.1 °F) 13.0 kmh (8.1 mph) W 72% 1009.0hPa (29.80 inHg) 0.0mm (0.00 in.)
6:45 29.0°C (84.2 °F) 13.0 kmh (8.1 mph) WNW 66% 1009.0hPa (29.80 inHg) 0.0mm (0.00 in.)
5:45 29.6°C (85.3 °F) 11.1 kmh (6.9 mph) SW 63% 1010.0hPa (29.83 inHg) 0.0mm (0.00 in.)
4:45 30.0°C (86.0 °F) 25.9 kmh (16.1 mph) NNW 62% 1010.0hPa (29.83 inHg) 0.0mm (0.00 in.)
3:45 30.7°C (87.3 °F) 18.5 kmh (11.5 mph) WNW 59% 1010.4hPa (29.84 inHg) 0.0mm (0.00 in.)
2:45 31.4°C (88.5 °F) 14.8 kmh (9.2 mph) WSW 56% 1011.0hPa (29.85 inHg) 0.0mm (0.00 in.)
1:45 31.0°C (87.8 °F) 20.4 kmh (12.7 mph) NW 56% 1011.0hPa (29.85 inHg) 0.0mm (0.00 in.)
12:40 30.5°C (86.9 °F) 13.0 kmh (8.1 mph) NNW 59% 1011.0hPa (29.85 inHg) 0.0mm (0.00 in.)
11:40 29.3°C (84.7 °F) 18.5 kmh (11.5 mph) NNW 65% 1011.0hPa (29.85 inHg) 0.0mm (0.00 in.)
10:40 28.9°C (84.0 °F) 3.7 kmh (2.3 mph) W 67% 1011.0hPa (29.85 inHg) 0.0mm (0.00 in.)
9:40 28.3°C (82.9 °F) 0.0 kmh (0.0 mph) NNW 68% 1011.0hPa (29.85 inHg) 0.0mm (0.00 in.)
8:33 26.4°C (79.5 °F) 11.1 kmh (6.9 mph) SSW 75% 1010.0hPa (29.83 inHg) 0.0mm (0.00 in.)
7:33 25.4°C (77.7 °F) 0.0 kmh (0.0 mph) N 83% 1010.0hPa (29.83 inHg) 0.0mm (0.00 in.)
6:33 25.2°C (77.4 °F) 5.6 kmh (3.5 mph) NNW 84% 1009.0hPa (29.80 inHg) 0.0mm (0.00 in.)
5:33 25.2°C (77.4 °F) 13.0 kmh (8.1 mph) N 85% 1009.0hPa (29.80 inHg) 0.0mm (0.00 in.)
4:33 25.3°C (77.5 °F) 16.7 kmh (10.4 mph) SSE 83% 1009.0hPa (29.80 inHg) 0.0mm (0.00 in.)
3:33 25.4°C (77.7 °F) 3.7 kmh (2.3 mph) S 82% 1009.0hPa (29.80 inHg) 0.0mm (0.00 in.)
2:33 25.5°C (77.9 °F) 7.4 kmh (4.6 mph) NNW 81% 1009.0hPa (29.80 inHg) 0.0mm (0.00 in.)
1:33 25.6°C (78.1 °F) 16.7 kmh (10.4 mph) N 80% 1009.0hPa (29.80 inHg) 0.0mm (0.00 in.)
12:33 25.6°C (78.1 °F) 18.5 kmh (11.5 mph) NNW 78% 1010.0hPa (29.83 inHg) 0.0mm (0.00 in.)

You need the latest version of Flash Player to view some of our content.


Why not download and install the latest version now?
It will only take you a moment and will ensure that you can view all the latest flash designed websites.

Translate this page

Animated Satellite

Click per aprire http://www.gozo.ws/Animation.php
copyright 2015 EUMETSAT

European Lightning Activity


Please click image for full size

Sponsored Links